sensor_id;sensor_type;location;lat;lon;timestamp;pressure;altitude;pressure_sealevel;temperature;humidity
2188;BME280;1100;52.014;8.540;2023-02-03T00:00:51;100754.59;;;5.81;99.86
2188;BME280;1100;52.014;8.540;2023-02-03T00:03:16;100750.66;;;5.82;99.46
2188;BME280;1100;52.014;8.540;2023-02-03T00:05:41;100756.97;;;5.83;99.81
2188;BME280;1100;52.014;8.540;2023-02-03T00:08:07;100744.34;;;5.85;99.89
2188;BME280;1100;52.014;8.540;2023-02-03T00:10:34;100737.69;;;5.86;99.69
2188;BME280;1100;52.014;8.540;2023-02-03T00:13:01;100740.44;;;5.86;99.66
2188;BME280;1100;52.014;8.540;2023-02-03T00:15:26;100737.69;;;5.86;99.77
2188;BME280;1100;52.014;8.540;2023-02-03T00:17:51;100728.22;;;5.88;99.39
2188;BME280;1100;52.014;8.540;2023-02-03T00:20:17;100726.63;;;5.86;99.41
2188;BME280;1100;52.014;8.540;2023-02-03T00:22:43;100727.03;;;5.89;99.72
2188;BME280;1100;52.014;8.540;2023-02-03T00:25:08;100743.56;;;5.89;99.67
2188;BME280;1100;52.014;8.540;2023-02-03T00:27:34;100747.94;;;5.90;99.59
2188;BME280;1100;52.014;8.540;2023-02-03T00:29:59;100745.94;;;5.90;99.72
2188;BME280;1100;52.014;8.540;2023-02-03T00:32:24;100732.16;;;5.94;99.68
2188;BME280;1100;52.014;8.540;2023-02-03T00:34:49;100731.75;;;5.92;99.79
2188;BME280;1100;52.014;8.540;2023-02-03T00:37:15;100738.06;;;5.92;99.63
2188;BME280;1100;52.014;8.540;2023-02-03T00:39:40;100741.25;;;5.94;99.62
2188;BME280;1100;52.014;8.540;2023-02-03T00:42:06;100747.91;;;5.93;99.82
2188;BME280;1100;52.014;8.540;2023-02-03T00:44:31;100748.34;;;5.95;99.62
2188;BME280;1100;52.014;8.540;2023-02-03T00:46:57;100730.19;;;5.94;99.58
2188;BME280;1100;52.014;8.540;2023-02-03T00:49:22;100743.19;;;5.94;99.58
2188;BME280;1100;52.014;8.540;2023-02-03T00:51:48;100742.00;;;5.95;99.78
2188;BME280;1100;52.014;8.540;2023-02-03T00:54:13;100756.19;;;5.93;99.79
2188;BME280;1100;52.014;8.540;2023-02-03T00:56:39;100764.88;;;5.92;99.64
2188;BME280;1100;52.014;8.540;2023-02-03T00:59:05;100751.06;;;5.92;99.84
2188;BME280;1100;52.014;8.540;2023-02-03T01:01:31;100755.44;;;5.93;99.78
2188;BME280;1100;52.014;8.540;2023-02-03T01:03:56;100761.72;;;5.93;99.96
2188;BME280;1100;52.014;8.540;2023-02-03T01:06:22;100768.03;;;5.94;99.63
2188;BME280;1100;52.014;8.540;2023-02-03T01:08:48;100768.44;;;5.96;99.84
2188;BME280;1100;52.014;8.540;2023-02-03T01:11:19;100778.28;;;5.97;99.93
2188;BME280;1100;52.014;8.540;2023-02-03T01:13:45;100766.06;;;5.98;99.86
2188;BME280;1100;52.014;8.540;2023-02-03T01:16:14;100771.19;;;5.99;99.69
2188;BME280;1100;52.014;8.540;2023-02-03T01:18:40;100764.50;;;5.97;99.92
2188;BME280;1100;52.014;8.540;2023-02-03T01:21:07;100766.84;;;5.95;99.70
2188;BME280;1100;52.014;8.540;2023-02-03T01:23:34;100763.31;;;5.94;99.38
2188;BME280;1100;52.014;8.540;2023-02-03T01:26:07;100763.31;;;5.94;99.78
2188;BME280;1100;52.014;8.540;2023-02-03T01:28:33;100755.41;;;5.96;99.99
2188;BME280;1100;52.014;8.540;2023-02-03T01:31:16;100762.94;;;5.96;99.83
2188;BME280;1100;52.014;8.540;2023-02-03T01:33:42;100768.03;;;6.01;100.00
2188;BME280;1100;52.014;8.540;2023-02-03T01:36:11;100771.59;;;6.02;99.73
2188;BME280;1100;52.014;8.540;2023-02-03T01:38:37;100768.84;;;6.02;100.00
2188;BME280;1100;52.014;8.540;2023-02-03T01:41:05;100775.94;;;6.03;99.71
2188;BME280;1100;52.014;8.540;2023-02-03T01:43:33;100779.50;;;6.03;100.00
2188;BME280;1100;52.014;8.540;2023-02-03T01:46:02;100767.28;;;6.04;99.78
2188;BME280;1100;52.014;8.540;2023-02-03T01:48:30;100757.06;;;6.05;99.80
2188;BME280;1100;52.014;8.540;2023-02-03T01:50:57;100753.50;;;6.04;100.00
2188;BME280;1100;52.014;8.540;2023-02-03T01:53:24;100749.13;;;6.03;99.99
2188;BME280;1100;52.014;8.540;2023-02-03T01:55:50;100746.00;;;6.05;99.86
2188;BME280;1100;52.014;8.540;2023-02-03T01:58:27;100737.72;;;6.05;100.00
2188;BME280;1100;52.014;8.540;2023-02-03T02:00:54;100736.56;;;6.09;100.00
2188;BME280;1100;52.014;8.540;2023-02-03T02:03:24;100749.16;;;6.10;99.92
2188;BME280;1100;52.014;8.540;2023-02-03T02:05:56;100736.56;;;6.09;99.94
2188;BME280;1100;52.014;8.540;2023-02-03T02:08:24;100735.78;;;6.05;99.85
2188;BME280;1100;52.014;8.540;2023-02-03T02:10:50;100728.66;;;6.04;100.00
2188;BME280;1100;52.014;8.540;2023-02-03T02:13:16;100719.56;;;6.04;99.62
2188;BME280;1100;52.014;8.540;2023-02-03T02:15:59;100705.00;;;6.07;99.95
2188;BME280;1100;52.014;8.540;2023-02-03T02:31:59;100703.44;;;6.13;100.00
2188;BME280;1100;52.014;8.540;2023-02-03T02:40:18;100640.34;;;6.12;100.00
2188;BME280;1100;52.014;8.540;2023-02-03T02:43:03;100651.38;;;6.12;99.86
2188;BME280;1100;52.014;8.540;2023-02-03T02:45:51;100684.88;;;6.14;99.82
2188;BME280;1100;52.014;8.540;2023-02-03T02:50:48;100682.16;;;6.10;99.85
2188;BME280;1100;52.014;8.540;2023-02-03T02:53:18;100688.44;;;6.10;99.83
2188;BME280;1100;52.014;8.540;2023-02-03T02:55:45;100697.13;;;6.13;99.99
2188;BME280;1100;52.014;8.540;2023-02-03T02:58:13;100705.41;;;6.13;99.99
2188;BME280;1100;52.014;8.540;2023-02-03T03:00:39;100711.72;;;6.13;100.00
2188;BME280;1100;52.014;8.540;2023-02-03T03:03:19;100718.00;;;6.14;100.00
2188;BME280;1100;52.014;8.540;2023-02-03T03:05:51;100717.22;;;6.17;99.89
2188;BME280;1100;52.014;8.540;2023-02-03T03:08:20;100719.22;;;6.16;100.00
2188;BME280;1100;52.014;8.540;2023-02-03T03:10:47;100706.19;;;6.17;99.62
2188;BME280;1100;52.014;8.540;2023-02-03T03:13:18;100723.94;;;6.16;99.78
2188;BME280;1100;52.014;8.540;2023-02-03T03:15:46;100711.31;;;6.18;100.00
2188;BME280;1100;52.014;8.540;2023-02-03T03:18:32;100688.84;;;6.20;99.88
2188;BME280;1100;52.014;8.540;2023-02-03T03:21:01;100674.63;;;6.21;100.00
2188;BME280;1100;52.014;8.540;2023-02-03T03:23:37;100686.88;;;6.20;99.64
2188;BME280;1100;52.014;8.540;2023-02-03T03:26:33;100675.44;;;6.18;100.00
2188;BME280;1100;52.014;8.540;2023-02-03T03:29:23;100689.22;;;6.18;99.69
2188;BME280;1100;52.014;8.540;2023-02-03T03:31:50;100675.84;;;6.20;99.89
2188;BME280;1100;52.014;8.540;2023-02-03T03:34:16;100672.28;;;6.20;99.75
2188;BME280;1100;52.014;8.540;2023-02-03T03:36:49;100656.91;;;6.19;99.87
2188;BME280;1100;52.014;8.540;2023-02-03T03:39:42;100654.13;;;6.19;99.85
2188;BME280;1100;52.014;8.540;2023-02-03T03:42:13;100675.03;;;6.20;99.70
2188;BME280;1100;52.014;8.540;2023-02-03T03:44:51;100676.63;;;6.17;99.73
2188;BME280;1100;52.014;8.540;2023-02-03T03:47:49;100668.72;;;6.16;99.85
2188;BME280;1100;52.014;8.540;2023-02-03T03:50:22;100688.44;;;6.14;99.92
2188;BME280;1100;52.014;8.540;2023-02-03T03:52:50;100662.03;;;6.17;99.94
2188;BME280;1100;52.014;8.540;2023-02-03T03:55:18;100651.78;;;6.17;99.64
2188;BME280;1100;52.014;8.540;2023-02-03T03:57:50;100649.81;;;6.18;100.00
2188;BME280;1100;52.014;8.540;2023-02-03T04:00:19;100657.31;;;6.21;100.00
2188;BME280;1100;52.014;8.540;2023-02-03T04:02:50;100644.28;;;6.21;99.75
2188;BME280;1100;52.014;8.540;2023-02-03T04:05:17;100637.97;;;6.21;99.59
2188;BME280;1100;52.014;8.540;2023-02-03T04:07:45;100643.88;;;6.23;99.88
2188;BME280;1100;52.014;8.540;2023-02-03T04:10:21;100639.53;;;6.22;99.91
2188;BME280;1100;52.014;8.540;2023-02-03T04:12:49;100639.53;;;6.22;99.80
2188;BME280;1100;52.014;8.540;2023-02-03T04:15:14;100639.53;;;6.22;99.75
2188;BME280;1100;52.014;8.540;2023-02-03T04:17:40;100645.47;;;6.20;99.89
2188;BME280;1100;52.014;8.540;2023-02-03T04:20:05;100649.03;;;6.21;99.73
2188;BME280;1100;52.014;8.540;2023-02-03T04:22:31;100638.75;;;6.21;99.86
2188;BME280;1100;52.014;8.540;2023-02-03T04:24:56;100638.34;;;6.23;99.84
2188;BME280;1100;52.014;8.540;2023-02-03T04:27:25;100647.84;;;6.26;99.85
2188;BME280;1100;52.014;8.540;2023-02-03T04:29:50;100644.28;;;6.25;99.89
2188;BME280;1100;52.014;8.540;2023-02-03T04:32:16;100637.19;;;6.24;99.59
2188;BME280;1100;52.014;8.540;2023-02-03T04:34:42;100640.72;;;6.25;99.75
2188;BME280;1100;52.014;8.540;2023-02-03T04:37:07;100645.88;;;6.22;99.68
2188;BME280;1100;52.014;8.540;2023-02-03T04:39:32;100632.06;;;6.22;99.57
2188;BME280;1100;52.014;8.540;2023-02-03T04:41:57;100634.44;;;6.24;99.66
2188;BME280;1100;52.014;8.540;2023-02-03T04:44:23;100643.09;;;6.26;99.90
2188;BME280;1100;52.014;8.540;2023-02-03T04:46:48;100631.28;;;6.26;99.64
2188;BME280;1100;52.014;8.540;2023-02-03T04:49:13;100628.91;;;6.24;99.66
2188;BME280;1100;52.014;8.540;2023-02-03T04:51:39;100630.47;;;6.25;99.72
2188;BME280;1100;52.014;8.540;2023-02-03T04:54:04;100626.13;;;6.28;99.84
2188;BME280;1100;52.014;8.540;2023-02-03T04:56:29;100628.50;;;6.26;99.35
2188;BME280;1100;52.014;8.540;2023-02-03T04:58:55;100620.22;;;6.26;99.51
2188;BME280;1100;52.014;8.540;2023-02-03T05:01:20;100617.06;;;6.27;99.50
2188;BME280;1100;52.014;8.540;2023-02-03T05:03:45;100598.91;;;6.26;99.64
2188;BME280;1100;52.014;8.540;2023-02-03T05:06:11;100601.66;;;6.26;99.47
2188;BME280;1100;52.014;8.540;2023-02-03T05:08:36;100582.75;;;6.25;99.46
2188;BME280;1100;52.014;8.540;2023-02-03T05:11:01;100587.09;;;6.26;99.71
2188;BME280;1100;52.014;8.540;2023-02-03T05:13:27;100596.94;;;6.27;99.49
2188;BME280;1100;52.014;8.540;2023-02-03T05:15:52;100589.47;;;6.23;99.37
2188;BME280;1100;52.014;8.540;2023-02-03T05:18:17;100597.75;;;6.23;99.71
2188;BME280;1100;52.014;8.540;2023-02-03T05:20:42;100591.81;;;6.25;99.78
2188;BME280;1100;52.014;8.540;2023-02-03T05:23:08;100603.25;;;6.27;99.69
2188;BME280;1100;52.014;8.540;2023-02-03T05:25:33;100579.59;;;6.26;99.55
2188;BME280;1100;52.014;8.540;2023-02-03T05:27:58;100589.06;;;6.25;99.41
2188;BME280;1100;52.014;8.540;2023-02-03T05:30:24;100591.81;;;6.25;99.57
2188;BME280;1100;52.014;8.540;2023-02-03T05:32:49;100592.22;;;6.27;99.37
2188;BME280;1100;52.014;8.540;2023-02-03T05:35:14;100584.72;;;6.28;99.64
2188;BME280;1100;52.014;8.540;2023-02-03T05:37:43;100552.38;;;6.28;99.34
2188;BME280;1100;52.014;8.540;2023-02-03T05:40:09;100564.22;;;6.29;99.36
2188;BME280;1100;52.014;8.540;2023-02-03T05:42:53;100569.34;;;6.30;99.40
2188;BME280;1100;52.014;8.540;2023-02-03T05:45:18;100572.50;;;6.29;99.26
2188;BME280;1100;52.014;8.540;2023-02-03T05:47:43;100582.75;;;6.28;99.40
2188;BME280;1100;52.014;8.540;2023-02-03T05:50:09;100583.16;;;6.30;99.42
2188;BME280;1100;52.014;8.540;2023-02-03T05:52:34;100585.09;;;6.30;99.46
2188;BME280;1100;52.014;8.540;2023-02-03T05:54:59;100589.06;;;6.29;99.31
2188;BME280;1100;52.014;8.540;2023-02-03T05:57:25;100582.34;;;6.30;99.02
2188;BME280;1100;52.014;8.540;2023-02-03T05:59:50;100582.34;;;6.26;99.33
2188;BME280;1100;52.014;8.540;2023-02-03T06:02:15;100595.38;;;6.26;99.11
2188;BME280;1100;52.014;8.540;2023-02-03T06:04:41;100581.19;;;6.23;99.33
2188;BME280;1100;52.014;8.540;2023-02-03T06:07:06;100582.75;;;6.25;99.11
2188;BME280;1100;52.014;8.540;2023-02-03T06:09:31;100579.59;;;6.19;99.31
2188;BME280;1100;52.014;8.540;2023-02-03T06:11:57;100591.44;;;6.16;99.04
2188;BME280;1100;52.014;8.540;2023-02-03T06:14:22;100585.94;;;6.08;99.17
2188;BME280;1100;52.014;8.540;2023-02-03T06:16:52;100593.00;;;6.02;98.95
2188;BME280;1100;52.014;8.540;2023-02-03T06:19:18;100598.13;;;5.96;99.01
2188;BME280;1100;52.014;8.540;2023-02-03T06:21:43;100585.53;;;5.88;98.94
2188;BME280;1100;52.014;8.540;2023-02-03T06:24:09;100570.94;;;5.80;98.63
2188;BME280;1100;52.014;8.540;2023-02-03T06:26:35;100574.09;;;5.75;98.87
2188;BME280;1100;52.014;8.540;2023-02-03T06:29:00;100581.97;;;5.69;98.88
2188;BME280;1100;52.014;8.540;2023-02-03T06:31:26;100589.44;;;5.69;98.83
2188;BME280;1100;52.014;8.540;2023-02-03T06:33:51;100588.28;;;5.66;98.96
2188;BME280;1100;52.014;8.540;2023-02-03T06:36:16;100586.69;;;5.65;99.13
2188;BME280;1100;52.014;8.540;2023-02-03T06:38:42;100580.78;;;5.63;99.18
2188;BME280;1100;52.014;8.540;2023-02-03T06:41:07;100583.94;;;5.58;98.74
2188;BME280;1100;52.014;8.540;2023-02-03T06:43:32;100576.81;;;5.60;99.26
2188;BME280;1100;52.014;8.540;2023-02-03T06:45:59;100575.66;;;5.61;99.17
2188;BME280;1100;52.014;8.540;2023-02-03T06:48:27;100578.81;;;5.60;99.44
2188;BME280;1100;52.014;8.540;2023-02-03T06:50:52;100576.06;;;5.60;99.47
2188;BME280;1100;52.014;8.540;2023-02-03T06:53:17;100593.38;;;5.60;99.31
2188;BME280;1100;52.014;8.540;2023-02-03T06:55:43;100578.44;;;5.61;99.47
2188;BME280;1100;52.014;8.540;2023-02-03T06:58:08;100596.94;;;5.65;99.55
2188;BME280;1100;52.014;8.540;2023-02-03T07:00:33;100587.06;;;5.64;99.57
2188;BME280;1100;52.014;8.540;2023-02-03T07:02:59;100589.06;;;5.63;99.45
2188;BME280;1100;52.014;8.540;2023-02-03T07:05:25;100579.59;;;5.64;99.52
2188;BME280;1100;52.014;8.540;2023-02-03T07:07:52;100571.72;;;5.66;99.72
2188;BME280;1100;52.014;8.540;2023-02-03T07:10:17;100598.09;;;5.64;99.74
2188;BME280;1100;52.014;8.540;2023-02-03T07:12:43;100583.56;;;5.63;99.67
2188;BME280;1100;52.014;8.540;2023-02-03T07:15:09;100585.13;;;5.64;99.65
2188;BME280;1100;52.014;8.540;2023-02-03T07:17:35;100585.91;;;5.65;99.61
2188;BME280;1100;52.014;8.540;2023-02-03T07:20:01;100584.72;;;5.62;99.96
2188;BME280;1100;52.014;8.540;2023-02-03T07:22:26;100583.94;;;5.65;100.00
2188;BME280;1100;52.014;8.540;2023-02-03T07:24:51;100596.94;;;5.65;99.99
2188;BME280;1100;52.014;8.540;2023-02-03T07:27:16;100569.75;;;5.63;99.92
2188;BME280;1100;52.014;8.540;2023-02-03T07:29:43;100574.88;;;5.65;100.00
2188;BME280;1100;52.014;8.540;2023-02-03T07:32:08;100567.78;;;5.64;99.97
2188;BME280;1100;52.014;8.540;2023-02-03T07:34:33;100565.41;;;5.62;99.99
2188;BME280;1100;52.014;8.540;2023-02-03T07:36:59;100583.16;;;5.65;100.00
2188;BME280;1100;52.014;8.540;2023-02-03T07:39:24;100576.44;;;5.66;100.00
2188;BME280;1100;52.014;8.540;2023-02-03T07:41:49;100582.38;;;5.68;100.00
2188;BME280;1100;52.014;8.540;2023-02-03T07:44:15;100570.16;;;5.69;100.00
2188;BME280;1100;52.014;8.540;2023-02-03T07:46:40;100562.66;;;5.69;100.00
2188;BME280;1100;52.014;8.540;2023-02-03T07:49:12;100555.56;;;5.72;100.00
2188;BME280;1100;52.014;8.540;2023-02-03T07:51:38;100561.47;;;5.74;100.00
2188;BME280;1100;52.014;8.540;2023-02-03T07:54:04;100559.88;;;5.73;100.00
2188;BME280;1100;52.014;8.540;2023-02-03T07:56:29;100553.22;;;5.74;100.00
2188;BME280;1100;52.014;8.540;2023-02-03T07:58:57;100557.94;;;5.73;100.00
2188;BME280;1100;52.014;8.540;2023-02-03T08:01:22;100561.84;;;5.76;100.00
2188;BME280;1100;52.014;8.540;2023-02-03T08:03:47;100568.56;;;5.75;100.00
2188;BME280;1100;52.014;8.540;2023-02-03T08:06:13;100575.28;;;5.74;100.00
2188;BME280;1100;52.014;8.540;2023-02-03T08:08:38;100564.22;;;5.78;100.00
2188;BME280;1100;52.014;8.540;2023-02-03T08:11:05;100581.97;;;5.77;100.00
2188;BME280;1100;52.014;8.540;2023-02-03T08:13:30;100583.16;;;5.76;100.00
2188;BME280;1100;52.014;8.540;2023-02-03T08:15:56;100590.63;;;5.75;100.00
2188;BME280;1100;52.014;8.540;2023-02-03T08:18:21;100580.78;;;5.78;100.00
2188;BME280;1100;52.014;8.540;2023-02-03T08:20:47;100583.94;;;5.80;100.00
2188;BME280;1100;52.014;8.540;2023-02-03T08:23:12;100575.25;;;5.78;99.96
2188;BME280;1100;52.014;8.540;2023-02-03T08:25:38;100566.97;;;5.78;100.00
2188;BME280;1100;52.014;8.540;2023-02-03T08:28:03;100575.66;;;5.80;100.00
2188;BME280;1100;52.014;8.540;2023-02-03T08:30:29;100571.72;;;5.81;100.00
2188;BME280;1100;52.014;8.540;2023-02-03T08:32:54;100573.31;;;5.82;100.00
2188;BME280;1100;52.014;8.540;2023-02-03T08:35:19;100577.25;;;5.84;100.00
2188;BME280;1100;52.014;8.540;2023-02-03T08:37:44;100575.25;;;5.89;100.00
2188;BME280;1100;52.014;8.540;2023-02-03T08:40:10;100559.50;;;5.85;100.00
2188;BME280;1100;52.014;8.540;2023-02-03T08:42:36;100571.72;;;5.88;100.00
2188;BME280;1100;52.014;8.540;2023-02-03T08:45:03;100584.72;;;5.88;100.00
2188;BME280;1100;52.014;8.540;2023-02-03T08:47:29;100570.13;;;5.91;100.00
2188;BME280;1100;52.014;8.540;2023-02-03T08:49:54;100571.72;;;5.92;100.00
2188;BME280;1100;52.014;8.540;2023-02-03T08:52:20;100575.66;;;5.94;100.00
2188;BME280;1100;52.014;8.540;2023-02-03T08:54:46;100568.16;;;5.95;100.00
2188;BME280;1100;52.014;8.540;2023-02-03T08:57:12;100561.84;;;5.98;100.00
2188;BME280;1100;52.014;8.540;2023-02-03T08:59:38;100563.03;;;5.97;100.00
2188;BME280;1100;52.014;8.540;2023-02-03T09:02:05;100555.16;;;5.99;100.00
2188;BME280;1100;52.014;8.540;2023-02-03T09:04:32;100526.78;;;6.02;100.00
2188;BME280;1100;52.014;8.540;2023-02-03T09:06:58;100542.56;;;6.05;100.00
2188;BME280;1100;52.014;8.540;2023-02-03T09:09:24;100547.28;;;6.05;100.00
2188;BME280;1100;52.014;8.540;2023-02-03T09:11:51;100545.34;;;6.05;100.00
2188;BME280;1100;52.014;8.540;2023-02-03T09:14:16;100561.09;;;6.08;100.00
2188;BME280;1100;52.014;8.540;2023-02-03T09:16:42;100563.84;;;6.08;100.00
2188;BME280;1100;52.014;8.540;2023-02-03T09:19:07;100550.44;;;6.10;100.00
2188;BME280;1100;52.014;8.540;2023-02-03T09:21:34;100577.63;;;6.12;100.00
2188;BME280;1100;52.014;8.540;2023-02-03T09:24:00;100570.16;;;6.13;100.00
2188;BME280;1100;52.014;8.540;2023-02-03T09:26:26;100564.63;;;6.13;100.00
2188;BME280;1100;52.014;8.540;2023-02-03T09:28:52;100577.25;;;6.17;100.00
2188;BME280;1100;52.014;8.540;2023-02-03T09:31:17;100575.28;;;6.18;100.00
2188;BME280;1100;52.014;8.540;2023-02-03T09:33:44;100567.00;;;6.18;100.00
2188;BME280;1100;52.014;8.540;2023-02-03T09:36:09;100572.88;;;6.20;100.00
2188;BME280;1100;52.014;8.540;2023-02-03T09:38:35;100564.59;;;6.20;100.00
2188;BME280;1100;52.014;8.540;2023-02-03T09:43:39;100565.00;;;6.22;100.00
2188;BME280;1100;52.014;8.540;2023-02-03T09:46:10;100565.41;;;6.24;100.00
2188;BME280;1100;52.014;8.540;2023-02-03T09:48:41;100564.59;;;6.23;100.00
2188;BME280;1100;52.014;8.540;2023-02-03T09:51:24;100558.69;;;6.25;100.00
2188;BME280;1100;52.014;8.540;2023-02-03T09:54:04;100551.97;;;6.26;100.00
2188;BME280;1100;52.014;8.540;2023-02-03T09:56:35;100571.69;;;6.28;100.00
2188;BME280;1100;52.014;8.540;2023-02-03T09:59:02;100566.97;;;6.29;100.00
2188;BME280;1100;52.014;8.540;2023-02-03T10:01:35;100566.94;;;6.32;100.00
2188;BME280;1100;52.014;8.540;2023-02-03T10:04:33;100566.94;;;6.32;100.00
2188;BME280;1100;52.014;8.540;2023-02-03T10:18:34;100576.44;;;6.35;100.00
2188;BME280;1100;52.014;8.540;2023-02-03T10:21:29;100590.63;;;6.33;100.00
2188;BME280;1100;52.014;8.540;2023-02-03T10:23:57;100584.31;;;6.33;100.00
2188;BME280;1100;52.014;8.540;2023-02-03T10:26:26;100593.00;;;6.31;100.00
2188;BME280;1100;52.014;8.540;2023-02-03T10:28:55;100618.63;;;6.32;100.00
2188;BME280;1100;52.014;8.540;2023-02-03T10:31:24;100607.19;;;6.30;100.00
2188;BME280;1100;52.014;8.540;2023-02-03T10:34:20;100608.00;;;6.30;100.00
2188;BME280;1100;52.014;8.540;2023-02-03T10:39:43;100592.59;;;6.37;100.00
2188;BME280;1100;52.014;8.540;2023-02-03T10:42:10;100605.59;;;6.40;100.00
2188;BME280;1100;52.014;8.540;2023-02-03T10:44:39;100615.06;;;6.39;100.00
2188;BME280;1100;52.014;8.540;2023-02-03T10:49:52;100609.53;;;6.39;100.00
2188;BME280;1100;52.014;8.540;2023-02-03T10:52:30;100612.69;;;6.41;100.00
2188;BME280;1100;52.014;8.540;2023-02-03T10:54:57;100608.75;;;6.42;100.00
2188;BME280;1100;52.014;8.540;2023-02-03T10:57:24;100616.25;;;6.41;100.00
2188;BME280;1100;52.014;8.540;2023-02-03T10:59:50;100598.50;;;6.46;100.00
2188;BME280;1100;52.014;8.540;2023-02-03T11:04:46;100609.91;;;6.52;100.00
2188;BME280;1100;52.014;8.540;2023-02-03T11:07:23;100619.78;;;6.49;100.00
2188;BME280;1100;52.014;8.540;2023-02-03T11:09:49;100619.00;;;6.52;100.00
2188;BME280;1100;52.014;8.540;2023-02-03T11:12:17;100628.06;;;6.53;100.00
2188;BME280;1100;52.014;8.540;2023-02-03T11:14:44;100631.63;;;6.53;100.00
2188;BME280;1100;52.014;8.540;2023-02-03T11:17:19;100632.41;;;6.54;100.00
2188;BME280;1100;52.014;8.540;2023-02-03T11:19:48;100639.91;;;6.57;100.00
2188;BME280;1100;52.014;8.540;2023-02-03T11:22:29;100641.88;;;6.56;100.00
2188;BME280;1100;52.014;8.540;2023-02-03T11:24:56;100650.94;;;6.53;100.00
2188;BME280;1100;52.014;8.540;2023-02-03T11:27:22;100647.38;;;6.53;100.00
2188;BME280;1100;52.014;8.540;2023-02-03T11:29:53;100638.69;;;6.54;100.00
2188;BME280;1100;52.014;8.540;2023-02-03T11:32:39;100647.38;;;6.56;100.00
2188;BME280;1100;52.014;8.540;2023-02-03T11:35:16;100657.25;;;6.57;100.00
2188;BME280;1100;52.014;8.540;2023-02-03T11:37:44;100648.56;;;6.59;100.00
2188;BME280;1100;52.014;8.540;2023-02-03T11:42:37;100647.00;;;6.62;100.00
2188;BME280;1100;52.014;8.540;2023-02-03T11:56:34;100627.59;;;6.80;100.00
2188;BME280;1100;52.014;8.540;2023-02-03T12:04:45;100657.22;;;6.76;100.00
2188;BME280;1100;52.014;8.540;2023-02-03T12:07:35;100679.72;;;6.74;100.00
2188;BME280;1100;52.014;8.540;2023-02-03T12:12:47;100679.31;;;6.72;100.00
2188;BME280;1100;52.014;8.540;2023-02-03T12:23:59;100682.88;;;6.69;100.00
2188;BME280;1100;52.014;8.540;2023-02-03T12:29:30;100690.34;;;6.87;100.00
2188;BME280;1100;52.014;8.540;2023-02-03T12:32:05;100693.88;;;6.91;100.00
2188;BME280;1100;52.014;8.540;2023-02-03T12:34:41;100696.25;;;6.96;100.00
2188;BME280;1100;52.014;8.540;2023-02-03T12:37:29;100703.34;;;6.97;100.00
2188;BME280;1100;52.014;8.540;2023-02-03T12:40:02;100704.94;;;6.98;100.00
2188;BME280;1100;52.014;8.540;2023-02-03T12:45:35;100702.94;;;7.06;100.00
2188;BME280;1100;52.014;8.540;2023-02-03T12:48:16;100709.66;;;7.08;100.00
2188;BME280;1100;52.014;8.540;2023-02-03T12:50:48;100709.25;;;7.10;100.00
2188;BME280;1100;52.014;8.540;2023-02-03T12:56:05;100709.25;;;7.10;100.00
2188;BME280;1100;52.014;8.540;2023-02-03T12:58:38;100708.03;;;7.15;100.00
2188;BME280;1100;52.014;8.540;2023-02-03T13:01:18;100714.38;;;7.15;100.00
2188;BME280;1100;52.014;8.540;2023-02-03T13:04:02;100720.28;;;7.17;100.00
2188;BME280;1100;52.014;8.540;2023-02-03T13:09:24;100720.25;;;7.21;100.00
2188;BME280;1100;52.014;8.540;2023-02-03T13:12:05;100703.28;;;7.26;100.00
2188;BME280;1100;52.014;8.540;2023-02-03T13:17:19;100697.75;;;7.26;100.00
2188;BME280;1100;52.014;8.540;2023-02-03T13:19:59;100686.69;;;7.26;100.00
2188;BME280;1100;52.014;8.540;2023-02-03T13:22:26;100684.28;;;7.28;100.00
2188;BME280;1100;52.014;8.540;2023-02-03T13:28:11;100690.25;;;7.23;100.00
2188;BME280;1100;52.014;8.540;2023-02-03T13:34:02;100687.88;;;7.18;100.00
2188;BME280;1100;52.014;8.540;2023-02-03T13:42:21;100703.31;;;7.15;100.00
2188;BME280;1100;52.014;8.540;2023-02-03T13:44:52;100714.34;;;7.19;100.00
2188;BME280;1100;52.014;8.540;2023-02-03T13:47:27;100726.19;;;7.16;100.00
2188;BME280;1100;52.014;8.540;2023-02-03T13:50:15;100732.53;;;7.16;100.00
2188;BME280;1100;52.014;8.540;2023-02-03T13:52:55;100734.09;;;7.17;100.00
2188;BME280;1100;52.014;8.540;2023-02-03T13:55:32;100732.13;;;7.18;100.00
2188;BME280;1100;52.014;8.540;2023-02-03T13:58:00;100716.75;;;7.13;100.00
2188;BME280;1100;52.014;8.540;2023-02-03T14:05:48;100733.34;;;7.02;99.53
2188;BME280;1100;52.014;8.540;2023-02-03T14:16:50;100729.44;;;6.89;99.12
2188;BME280;1100;52.014;8.540;2023-02-03T14:21:56;100733.00;;;6.82;99.04
2188;BME280;1100;52.014;8.540;2023-02-03T14:24:28;100745.66;;;6.79;98.96
2188;BME280;1100;52.014;8.540;2023-02-03T14:26:56;100751.56;;;6.78;99.28
2188;BME280;1100;52.014;8.540;2023-02-03T14:29:34;100770.91;;;6.74;99.09
2188;BME280;1100;52.014;8.540;2023-02-03T14:32:11;100773.28;;;6.72;98.62
2188;BME280;1100;52.014;8.540;2023-02-03T14:37:15;100799.34;;;6.75;98.42
2188;BME280;1100;52.014;8.540;2023-02-03T14:42:28;100804.06;;;6.78;98.18
2188;BME280;1100;52.014;8.540;2023-02-03T14:45:13;100810.00;;;6.76;98.06
2188;BME280;1100;52.014;8.540;2023-02-03T14:47:59;100786.28;;;6.75;97.80
2188;BME280;1100;52.014;8.540;2023-02-03T14:53:40;100821.06;;;6.76;97.96
2188;BME280;1100;52.014;8.540;2023-02-03T14:59:23;100828.53;;;6.68;97.67
2188;BME280;1100;52.014;8.540;2023-02-03T15:06:47;100840.38;;;6.62;97.51
2188;BME280;1100;52.014;8.540;2023-02-03T15:12:24;100854.97;;;6.58;97.26
2188;BME280;1100;52.014;8.540;2023-02-03T15:14:50;100862.06;;;6.59;97.30
2188;BME280;1100;52.014;8.540;2023-02-03T15:17:28;100865.22;;;6.58;96.95
2188;BME280;1100;52.014;8.540;2023-02-03T15:19:55;100865.22;;;6.58;96.93
2188;BME280;1100;52.014;8.540;2023-02-03T15:22:29;100877.84;;;6.59;96.48
2188;BME280;1100;52.014;8.540;2023-02-03T15:24:57;100872.31;;;6.59;96.46
2188;BME280;1100;52.014;8.540;2023-02-03T15:27:26;100869.97;;;6.54;96.46
2188;BME280;1100;52.014;8.540;2023-02-03T15:29:52;100874.28;;;6.47;96.40
2188;BME280;1100;52.014;8.540;2023-02-03T15:32:25;100875.47;;;6.43;96.56
2188;BME280;1100;52.014;8.540;2023-02-03T15:34:54;100880.97;;;6.39;96.56
2188;BME280;1100;52.014;8.540;2023-02-03T15:39:59;100867.53;;;6.30;95.74
2188;BME280;1100;52.014;8.540;2023-02-03T15:48:16;100873.00;;;6.16;95.45
2188;BME280;1100;52.014;8.540;2023-02-03T15:50:47;100878.13;;;6.14;96.16
2188;BME280;1100;52.014;8.540;2023-02-03T15:55:49;100892.28;;;6.05;94.98